createdAt,value
2019-02-02T00:00:56.812Z,29.63
2019-02-02T00:02:07.813Z,29.42
2019-02-02T00:03:12.060Z,26.93
2019-02-02T00:04:17.602Z,27.02
2019-02-02T00:05:21.570Z,26.87
2019-02-02T00:06:25.959Z,26.05
2019-02-02T00:07:30.100Z,27.00
2019-02-02T00:08:33.910Z,26.30
2019-02-02T00:09:37.886Z,26.33
2019-02-02T00:10:41.853Z,27.70
2019-02-02T00:11:45.853Z,26.48
2019-02-02T00:12:49.895Z,26.82
2019-02-02T00:13:53.784Z,28.38
2019-02-02T00:14:57.677Z,26.10
2019-02-02T00:16:01.567Z,27.60
2019-02-02T00:17:06.035Z,27.45
2019-02-02T00:18:10.243Z,25.43
2019-02-02T00:19:14.309Z,28.27
2019-02-02T00:20:18.459Z,28.83
2019-02-02T00:21:22.345Z,28.27
2019-02-02T00:22:26.659Z,28.45
2019-02-02T00:23:30.546Z,29.05
2019-02-02T00:24:34.620Z,29.32
2019-02-02T00:25:38.519Z,28.57
2019-02-02T00:26:42.405Z,28.90
2019-02-02T00:27:46.474Z,29.42
2019-02-02T00:28:50.604Z,28.67
2019-02-02T00:29:54.913Z,28.83
2019-02-02T00:30:59.225Z,28.38
2019-02-02T00:32:04.332Z,28.25
2019-02-02T00:33:08.870Z,27.93
2019-02-02T00:34:12.762Z,28.15
2019-02-02T00:35:16.677Z,28.23
2019-02-02T00:36:20.975Z,28.38
2019-02-02T00:37:25.180Z,28.85
2019-02-02T00:38:29.421Z,28.52
2019-02-02T00:39:33.691Z,27.75
2019-02-02T00:40:37.917Z,28.45
2019-02-02T00:41:41.815Z,28.73
2019-02-02T00:42:46.287Z,28.20
2019-02-02T00:43:50.355Z,28.17
2019-02-02T00:44:54.515Z,28.15
2019-02-02T00:45:58.539Z,27.27
2019-02-02T00:47:03.030Z,27.20
2019-02-02T00:48:07.108Z,25.77
2019-02-02T00:49:11.076Z,27.65
2019-02-02T00:50:15.667Z,27.27
2019-02-02T00:51:19.650Z,27.22
2019-02-02T00:52:23.551Z,26.73
2019-02-02T00:53:28.163Z,26.77
2019-02-02T00:54:32.367Z,26.37
2019-02-02T00:55:36.488Z,26.87
2019-02-02T00:56:40.710Z,25.48
2019-02-02T00:57:53.102Z,25.20
2019-02-02T00:58:51.050Z,25.08
2019-02-02T00:59:55.348Z,26.55
2019-02-02T01:00:59.882Z,26.33
2019-02-02T01:02:03.773Z,25.48
2019-02-02T01:03:07.848Z,25.27
2019-02-02T01:04:11.818Z,25.35
2019-02-02T01:05:16.811Z,25.70
2019-02-02T01:06:20.721Z,25.88
2019-02-02T01:07:24.991Z,25.75
2019-02-02T01:08:29.190Z,25.77
2019-02-02T01:09:33.017Z,27.05
2019-02-02T01:10:37.274Z,26.33
2019-02-02T01:11:41.815Z,25.15
2019-02-02T01:12:46.123Z,25.25
2019-02-02T01:13:50.185Z,26.37
2019-02-02T01:14:54.389Z,25.48
2019-02-02T01:15:58.321Z,25.65
2019-02-02T01:17:02.646Z,25.57
2019-02-02T01:18:06.615Z,25.12
2019-02-02T01:19:10.942Z,25.68
2019-02-02T01:20:15.415Z,26.48
2019-02-02T01:21:19.661Z,26.57
2019-02-02T01:22:23.724Z,27.27
2019-02-02T01:23:27.967Z,26.00
2019-02-02T01:24:32.379Z,25.62
2019-02-02T01:25:36.275Z,25.45
2019-02-02T01:26:40.180Z,26.62
2019-02-02T01:27:44.789Z,25.43
2019-02-02T01:28:48.997Z,26.40
2019-02-02T01:29:53.309Z,25.25
2019-02-02T01:30:57.865Z,25.40
2019-02-02T01:32:02.043Z,26.27
2019-02-02T01:33:06.525Z,27.30
2019-02-02T01:34:10.741Z,27.85
2019-02-02T01:35:16.217Z,28.00
2019-02-02T01:36:20.435Z,27.80
2019-02-02T01:37:24.414Z,27.27
2019-02-02T01:38:28.398Z,28.38
2019-02-02T01:39:32.223Z,28.50
2019-02-02T01:40:36.690Z,29.52
2019-02-02T01:41:41.306Z,29.45
2019-02-02T01:42:45.924Z,28.38
2019-02-02T01:43:50.135Z,27.42
2019-02-02T01:44:54.661Z,27.32
2019-02-02T01:45:58.624Z,26.62
2019-02-02T01:47:02.587Z,27.20
2019-02-02T01:48:06.486Z,26.65
2019-02-02T01:49:10.441Z,26.80
2019-02-02T01:50:16.169Z,28.70
2019-02-02T01:51:20.134Z,29.55
2019-02-02T01:52:23.948Z,27.87
2019-02-02T01:53:27.918Z,27.75
2019-02-02T01:54:31.811Z,26.68
2019-02-02T01:55:35.626Z,28.15
2019-02-02T01:56:39.523Z,26.57
2019-02-02T01:57:44.455Z,26.07
2019-02-02T01:58:48.761Z,28.65
2019-02-02T01:59:53.143Z,27.42
2019-02-02T02:00:57.029Z,28.10
2019-02-02T02:02:00.920Z,26.95
2019-02-02T02:03:05.347Z,26.25
2019-02-02T02:04:09.241Z,28.42
2019-02-02T02:05:13.451Z,27.20
2019-02-02T02:06:17.665Z,29.75
2019-02-02T02:07:21.879Z,28.27
2019-02-02T02:08:25.949Z,29.07
2019-02-02T02:09:29.765Z,28.77
2019-02-02T02:10:34.048Z,27.40
2019-02-02T02:11:38.017Z,28.17
2019-02-02T02:12:42.226Z,26.37
2019-02-02T02:13:46.401Z,27.45
2019-02-02T02:14:50.294Z,27.17
2019-02-02T02:15:54.562Z,27.20
2019-02-02T02:16:58.536Z,28.77
2019-02-02T02:18:02.430Z,27.15
2019-02-02T02:19:06.919Z,28.23
2019-02-02T02:20:12.203Z,27.55
2019-02-02T02:21:16.413Z,27.73
2019-02-02T02:22:20.378Z,27.13
2019-02-02T02:23:24.306Z,29.40
2019-02-02T02:24:28.470Z,25.10
2019-02-02T02:25:32.639Z,27.40
2019-02-02T02:26:36.459Z,26.07
2019-02-02T02:27:40.966Z,28.52
2019-02-02T02:28:45.109Z,28.40
2019-02-02T02:29:48.933Z,30.48
2019-02-02T02:30:53.299Z,29.02
2019-02-02T02:31:57.456Z,30.62
2019-02-02T02:33:01.954Z,29.87
2019-02-02T02:34:06.263Z,32.05
2019-02-02T02:35:10.628Z,30.88
2019-02-02T02:36:14.451Z,27.80
2019-02-02T02:37:18.277Z,29.10
2019-02-02T02:38:22.575Z,26.15
2019-02-02T02:39:26.983Z,27.17
2019-02-02T02:40:31.295Z,27.05
2019-02-02T02:41:35.500Z,26.07
2019-02-02T02:42:39.466Z,24.32
2019-02-02T02:43:43.907Z,25.68
2019-02-02T02:44:48.017Z,25.20
2019-02-02T02:45:51.837Z,27.48
2019-02-02T02:46:55.655Z,26.52
2019-02-02T02:47:59.914Z,26.05
2019-02-02T02:49:03.917Z,25.32
2019-02-02T02:50:10.524Z,26.97
2019-02-02T02:51:14.785Z,24.00
2019-02-02T02:52:18.989Z,26.07
2019-02-02T02:53:23.702Z,27.30
2019-02-02T02:54:27.766Z,28.35
2019-02-02T02:55:31.594Z,27.87
2019-02-02T02:56:35.880Z,29.15
2019-02-02T03:01:37.287Z,27.32
2019-02-02T03:03:00.255Z,25.75
2019-02-02T03:04:23.278Z,28.17
2019-02-02T03:07:19.449Z,27.52
2019-02-02T03:08:22.639Z,26.40
2019-02-02T03:09:26.609Z,27.05
2019-02-02T03:10:30.831Z,28.17
2019-02-02T03:11:34.795Z,28.70
2019-02-02T03:12:38.757Z,28.05
2019-02-02T03:13:42.734Z,28.35
2019-02-02T03:14:46.870Z,27.50
2019-02-02T03:15:50.859Z,28.70
2019-02-02T03:16:54.831Z,28.15
2019-02-02T03:17:59.040Z,29.32
2019-02-02T03:19:03.011Z,27.32
2019-02-02T03:20:08.022Z,26.80
2019-02-02T03:21:11.914Z,29.30
2019-02-02T03:22:16.050Z,29.15
2019-02-02T03:23:20.509Z,28.07
2019-02-02T03:24:24.479Z,29.27
2019-02-02T03:25:28.558Z,28.75
2019-02-02T03:26:33.026Z,27.93
2019-02-02T03:27:37.227Z,28.10
2019-02-02T03:28:52.862Z,28.80
2019-02-02T03:29:46.975Z,27.35
2019-02-02T03:30:50.883Z,27.27
2019-02-02T03:31:54.778Z,27.00
2019-02-02T03:32:58.998Z,26.05
2019-02-02T03:34:03.129Z,27.32
2019-02-02T03:35:07.846Z,27.02
2019-02-02T03:36:12.070Z,27.15
2019-02-02T03:37:16.347Z,28.52
2019-02-02T03:38:20.237Z,28.45
2019-02-02T03:39:24.213Z,27.95
2019-02-02T03:40:28.180Z,28.67
2019-02-02T03:41:32.396Z,29.10
2019-02-02T03:42:36.556Z,30.27
2019-02-02T03:43:40.781Z,28.17
2019-02-02T03:44:44.969Z,28.25
2019-02-02T03:45:49.210Z,28.07
2019-02-02T03:46:53.430Z,27.67
2019-02-02T03:47:57.645Z,27.32
2019-02-02T03:49:01.861Z,27.55
2019-02-02T03:50:06.828Z,28.45
2019-02-02T03:51:11.055Z,27.75
2019-02-02T03:52:15.197Z,28.75
2019-02-02T03:53:19.092Z,28.02
2019-02-02T03:54:23.226Z,27.77
2019-02-02T03:55:27.434Z,28.70
2019-02-02T03:56:31.578Z,29.40
2019-02-02T03:57:35.547Z,28.23
2019-02-02T03:58:39.754Z,27.58
2019-02-02T03:59:43.571Z,27.75
2019-02-02T04:00:47.706Z,28.30
2019-02-02T04:01:51.690Z,28.90
2019-02-02T04:02:55.582Z,29.85
2019-02-02T04:03:59.860Z,29.55
2019-02-02T04:05:04.427Z,28.95
2019-02-02T04:06:08.635Z,28.83
2019-02-02T04:07:12.798Z,29.20
2019-02-02T04:08:17.021Z,30.17
2019-02-02T04:09:20.919Z,29.77
2019-02-02T04:10:25.125Z,30.88
2019-02-02T04:11:29.345Z,29.75
2019-02-02T04:12:33.173Z,27.82
2019-02-02T04:13:37.315Z,28.62
2019-02-02T04:14:41.205Z,29.77
2019-02-02T04:15:45.172Z,27.58
2019-02-02T04:16:49.314Z,30.05
2019-02-02T04:17:53.546Z,31.02
2019-02-02T04:18:57.754Z,30.68
2019-02-02T04:20:01.893Z,29.72
2019-02-02T04:21:05.862Z,30.40
2019-02-02T04:22:09.863Z,28.02
2019-02-02T04:23:14.002Z,29.55
2019-02-02T04:24:18.141Z,31.20
2019-02-02T04:25:22.670Z,30.08
2019-02-02T04:26:26.634Z,26.37
2019-02-02T04:27:30.617Z,28.42
2019-02-02T04:28:34.508Z,28.73
2019-02-02T04:29:38.473Z,31.87
2019-02-02T04:30:42.685Z,30.82
2019-02-02T04:31:46.903Z,31.25
2019-02-02T04:32:51.125Z,31.48
2019-02-02T04:33:55.490Z,32.42
2019-02-02T04:34:59.958Z,34.13
2019-02-02T04:36:03.926Z,34.80
2019-02-02T04:37:07.750Z,36.00
2019-02-02T04:38:11.913Z,33.95
2019-02-02T04:39:15.970Z,33.73
2019-02-02T04:40:19.938Z,34.18
2019-02-02T04:41:23.760Z,33.53
2019-02-02T04:42:27.908Z,33.55
2019-02-02T04:43:32.375Z,32.73
2019-02-02T04:44:36.510Z,32.73
2019-02-02T04:45:40.476Z,32.35
2019-02-02T04:46:44.374Z,31.15
2019-02-02T04:47:48.286Z,32.00
2019-02-02T04:48:52.345Z,30.68
2019-02-02T04:49:56.313Z,30.65
2019-02-02T04:51:00.627Z,30.90
2019-02-02T04:52:04.836Z,31.05
2019-02-02T04:53:09.056Z,30.15
2019-02-02T04:54:13.116Z,30.50
2019-02-02T04:55:18.383Z,30.82
2019-02-02T04:56:22.277Z,30.88
2019-02-02T04:57:26.179Z,30.27
2019-02-02T04:58:30.090Z,29.45
2019-02-02T04:59:34.237Z,29.55
2019-02-02T05:00:38.370Z,29.85
2019-02-02T05:01:42.264Z,27.27
2019-02-02T05:02:46.468Z,27.77
2019-02-02T05:03:50.378Z,27.77
2019-02-02T05:04:54.268Z,28.35
2019-02-02T05:05:58.487Z,29.50
2019-02-02T05:07:02.305Z,28.70
2019-02-02T05:08:06.287Z,30.10
2019-02-02T05:09:10.497Z,30.43
2019-02-02T05:10:16.210Z,30.80
2019-02-02T05:11:20.417Z,29.92
2019-02-02T05:12:24.555Z,29.48
2019-02-02T05:13:28.786Z,29.65
2019-02-02T05:14:32.686Z,29.25
2019-02-02T05:15:36.884Z,30.45
2019-02-02T05:16:41.017Z,30.20
2019-02-02T05:17:45.234Z,26.85
2019-02-02T05:18:49.385Z,28.55
2019-02-02T05:19:53.534Z,28.38
2019-02-02T05:20:57.751Z,31.30
2019-02-02T05:22:02.132Z,32.45
2019-02-02T05:23:06.370Z,30.40
2019-02-02T05:24:10.601Z,30.80
2019-02-02T05:25:14.905Z,32.13
2019-02-02T05:26:19.113Z,30.75
2019-02-02T05:27:22.929Z,29.92
2019-02-02T05:28:27.075Z,28.98
2019-02-02T05:29:41.150Z,30.23
2019-02-02T05:30:36.918Z,30.45
2019-02-02T05:31:40.890Z,32.10
2019-02-02T05:32:45.102Z,33.08
2019-02-02T05:33:49.072Z,34.25
2019-02-02T05:34:53.667Z,34.63
2019-02-02T05:35:57.877Z,34.18
2019-02-02T05:37:02.010Z,32.65
2019-02-02T05:38:05.993Z,31.15
2019-02-02T05:39:10.565Z,33.33
2019-02-02T05:40:15.917Z,33.40
2019-02-02T05:41:19.981Z,35.25
2019-02-02T05:42:24.116Z,33.70
2019-02-02T05:43:28.328Z,32.45
2019-02-02T05:44:32.490Z,31.85
2019-02-02T05:45:36.702Z,34.10
2019-02-02T05:46:40.596Z,32.10
2019-02-02T05:47:44.571Z,33.13
2019-02-02T05:48:48.382Z,34.38
2019-02-02T05:49:52.217Z,33.42
2019-02-02T05:50:56.039Z,33.23
2019-02-02T05:52:00.097Z,34.15
2019-02-02T05:53:04.334Z,31.93
2019-02-02T05:54:08.781Z,31.57
2019-02-02T05:55:13.835Z,31.70
2019-02-02T05:56:17.724Z,30.88
2019-02-02T05:57:21.870Z,30.57
2019-02-02T05:58:26.010Z,30.68
2019-02-02T05:59:30.394Z,30.75
2019-02-02T06:00:46.728Z,30.75
2019-02-02T06:01:50.696Z,30.37
2019-02-02T06:02:54.660Z,29.90
2019-02-02T06:03:58.881Z,29.95
2019-02-02T06:05:03.295Z,29.48
2019-02-02T06:06:07.501Z,30.08
2019-02-02T06:07:11.711Z,31.90
2019-02-02T06:08:15.674Z,31.48
2019-02-02T06:09:22.475Z,32.60
2019-02-02T06:10:25.508Z,31.62
2019-02-02T06:11:29.718Z,29.40
2019-02-02T06:12:33.848Z,29.90
2019-02-02T06:13:37.742Z,30.88
2019-02-02T06:14:41.632Z,26.87
2019-02-02T06:15:45.614Z,31.10
2019-02-02T06:16:49.514Z,29.82
2019-02-02T06:17:53.731Z,29.80
2019-02-02T06:18:57.541Z,29.75
2019-02-02T06:20:01.514Z,28.05
2019-02-02T06:21:05.661Z,26.33
2019-02-02T06:22:09.871Z,28.98
2019-02-02T06:23:13.690Z,29.55
2019-02-02T06:24:17.577Z,32.20
2019-02-02T06:25:21.579Z,31.15
2019-02-02T06:26:25.540Z,31.93
2019-02-02T06:27:29.954Z,30.08
2019-02-02T06:28:34.419Z,28.70
2019-02-02T06:29:38.564Z,32.00
2019-02-02T06:30:42.401Z,28.02
2019-02-02T06:31:46.221Z,29.98
2019-02-02T06:32:50.129Z,29.23
2019-02-02T06:33:54.010Z,29.77
2019-02-02T06:34:58.249Z,29.85
2019-02-02T06:36:03.625Z,27.48
2019-02-02T06:37:07.637Z,31.65
2019-02-02T06:38:11.546Z,31.05
2019-02-02T06:39:15.443Z,32.13
2019-02-02T06:40:19.656Z,31.68
2019-02-02T06:41:23.672Z,32.78
2019-02-02T06:42:27.782Z,31.57
2019-02-02T06:43:31.755Z,31.42
2019-02-02T06:44:35.775Z,32.38
2019-02-02T06:45:39.867Z,31.87
2019-02-02T06:46:44.340Z,31.50
2019-02-02T06:47:48.521Z,31.68
2019-02-02T06:48:52.409Z,30.75
2019-02-02T06:49:56.231Z,31.02
2019-02-02T06:51:00.394Z,31.25
2019-02-02T06:52:04.610Z,31.27
2019-02-02T06:53:08.576Z,30.48
2019-02-02T06:54:12.472Z,32.63
2019-02-02T06:55:16.761Z,32.20
2019-02-02T06:56:21.162Z,30.32
2019-02-02T06:57:25.061Z,30.32
2019-02-02T06:58:29.026Z,29.25
2019-02-02T06:59:32.850Z,30.65
2019-02-02T07:00:37.068Z,29.40
2019-02-02T07:01:41.307Z,30.08
2019-02-02T07:02:45.526Z,31.87
2019-02-02T07:03:49.415Z,30.85
2019-02-02T07:04:53.486Z,31.75
2019-02-02T07:05:57.462Z,32.13
2019-02-02T07:07:01.374Z,30.95
2019-02-02T07:08:05.356Z,31.57
2019-02-02T07:09:09.976Z,32.38
2019-02-02T07:10:24.802Z,30.40
2019-02-02T07:11:28.940Z,29.85
2019-02-02T07:12:33.322Z,30.90
2019-02-02T07:13:37.141Z,30.23
2019-02-02T07:14:41.110Z,31.07
2019-02-02T07:15:45.322Z,32.70
2019-02-02T07:16:49.153Z,31.07
2019-02-02T07:17:53.545Z,28.75
2019-02-02T07:18:57.440Z,30.77
2019-02-02T07:20:01.410Z,33.58
2019-02-02T07:21:05.373Z,33.63
2019-02-02T07:22:09.587Z,34.88
2019-02-02T07:23:13.806Z,38.20
2019-02-02T07:24:18.009Z,39.03
2019-02-02T07:25:21.979Z,36.98
2019-02-02T07:26:25.864Z,31.17
2019-02-02T07:27:30.259Z,30.85
2019-02-02T07:28:34.237Z,31.93
2019-02-02T07:29:38.046Z,29.87
2019-02-02T07:30:42.253Z,30.37
2019-02-02T07:31:46.461Z,29.10
2019-02-02T07:32:50.526Z,33.08
2019-02-02T07:33:54.418Z,30.15
2019-02-02T07:34:58.736Z,32.67
2019-02-02T07:36:02.871Z,31.07
2019-02-02T07:37:07.072Z,33.15
2019-02-02T07:38:11.307Z,29.20
2019-02-02T07:39:15.457Z,28.45
2019-02-02T07:40:19.730Z,32.58
2019-02-02T07:41:23.798Z,30.60
2019-02-02T07:42:27.615Z,31.30
2019-02-02T07:43:31.542Z,31.00
2019-02-02T07:44:35.442Z,29.48
2019-02-02T07:45:39.257Z,30.97
2019-02-02T07:46:43.150Z,31.40
2019-02-02T07:47:47.391Z,31.12
2019-02-02T07:48:51.209Z,32.23
2019-02-02T07:49:55.669Z,31.73
2019-02-02T07:50:59.562Z,32.93
2019-02-02T07:52:03.776Z,31.57
2019-02-02T07:53:07.757Z,31.95
2019-02-02T07:54:11.727Z,30.80
2019-02-02T07:55:16.947Z,27.60
2019-02-02T07:56:20.839Z,29.75
2019-02-02T07:57:24.977Z,32.70
2019-02-02T07:58:28.886Z,31.80
2019-02-02T07:59:32.783Z,30.55
2019-02-02T08:00:41.756Z,32.50
2019-02-02T08:01:43.620Z,32.40
2019-02-02T08:02:47.836Z,33.33
2019-02-02T08:03:52.064Z,39.67
2019-02-02T08:04:55.967Z,33.58
2019-02-02T08:06:00.103Z,36.48
2019-02-02T08:07:04.074Z,32.88
2019-02-02T08:08:08.042Z,30.85
2019-02-02T08:09:12.269Z,33.42
2019-02-02T08:10:16.330Z,34.00
2019-02-02T08:11:20.543Z,39.53
2019-02-02T08:12:24.508Z,35.65
2019-02-02T08:13:28.577Z,38.23
2019-02-02T08:14:32.826Z,37.83
2019-02-02T08:15:37.031Z,33.92
2019-02-02T08:16:41.274Z,34.33
2019-02-02T08:17:45.181Z,33.05
2019-02-02T08:18:49.164Z,32.38
2019-02-02T08:19:52.999Z,34.20
2019-02-02T08:20:57.134Z,32.45
2019-02-02T08:22:01.364Z,37.73
2019-02-02T08:23:06.195Z,33.60
2019-02-02T08:24:10.349Z,32.90
2019-02-02T08:25:15.654Z,29.12
2019-02-02T08:26:19.861Z,29.25
2019-02-02T08:27:24.069Z,28.05
2019-02-02T08:28:27.976Z,31.23
2019-02-02T08:29:31.881Z,30.85
2019-02-02T08:30:36.469Z,30.57
2019-02-02T08:31:40.508Z,32.70
2019-02-02T08:32:44.724Z,31.90
2019-02-02T08:33:48.621Z,32.80
2019-02-02T08:34:52.710Z,32.90
2019-02-02T08:35:56.890Z,31.82
2019-02-02T08:37:00.787Z,30.75
2019-02-02T08:38:04.986Z,32.45
2019-02-02T08:39:10.283Z,32.60
2019-02-02T08:40:15.118Z,30.57
2019-02-02T08:41:19.082Z,29.25
2019-02-02T08:42:23.289Z,30.12
2019-02-02T08:43:27.182Z,34.13
2019-02-02T08:44:31.259Z,32.85
2019-02-02T08:45:35.176Z,32.30
2019-02-02T08:46:39.713Z,38.40
2019-02-02T08:47:44.130Z,34.80
2019-02-02T08:48:48.276Z,39.55
2019-02-02T08:49:52.359Z,39.98
2019-02-02T08:50:56.572Z,38.55
2019-02-02T08:52:00.539Z,36.15
2019-02-02T08:53:04.710Z,35.63
2019-02-02T08:54:08.686Z,35.35
2019-02-02T08:55:12.949Z,31.50
2019-02-02T08:56:17.227Z,31.52
2019-02-02T08:57:21.363Z,33.55
2019-02-02T08:58:25.689Z,33.50
2019-02-02T08:59:29.521Z,34.55
2019-02-02T09:00:33.676Z,32.10
2019-02-02T09:01:37.818Z,34.53
2019-02-02T09:02:42.090Z,33.05
2019-02-02T09:03:46.252Z,30.50
2019-02-02T09:04:50.239Z,31.20
2019-02-02T09:05:54.227Z,30.72
2019-02-02T09:06:58.156Z,30.17
2019-02-02T09:08:02.386Z,32.17
2019-02-02T09:09:08.906Z,34.30
2019-02-02T09:10:15.709Z,36.63
2019-02-02T09:11:19.674Z,38.15
2019-02-02T09:12:23.982Z,32.28
2019-02-02T09:13:27.804Z,35.40
2019-02-02T09:14:32.180Z,29.67
2019-02-02T09:15:36.405Z,31.33
2019-02-02T09:16:40.376Z,29.80
2019-02-02T09:17:44.269Z,29.60
2019-02-02T09:18:51.034Z,30.25
2019-02-02T09:19:53.694Z,28.98
2019-02-02T09:20:57.677Z,29.55
2019-02-02T09:22:01.821Z,29.98
2019-02-02T09:23:06.756Z,29.48
2019-02-02T09:24:10.828Z,29.20
2019-02-02T09:25:15.684Z,28.73
2019-02-02T09:26:19.846Z,27.35
2019-02-02T09:27:23.977Z,30.23
2019-02-02T09:28:27.876Z,28.30
2019-02-02T09:29:32.190Z,28.95
2019-02-02T09:30:38.069Z,29.85
2019-02-02T09:31:41.973Z,31.73
2019-02-02T09:32:45.817Z,30.35
2019-02-02T09:33:49.701Z,32.75
2019-02-02T09:34:53.918Z,30.15
2019-02-02T09:35:57.902Z,29.75
2019-02-02T09:37:02.117Z,29.77
2019-02-02T09:38:06.174Z,29.12
2019-02-02T09:39:10.331Z,30.85
2019-02-02T09:40:15.803Z,30.72
2019-02-02T09:41:19.711Z,28.67
2019-02-02T09:42:23.602Z,30.55
2019-02-02T09:43:27.565Z,32.30
2019-02-02T09:44:31.781Z,30.52
2019-02-02T09:45:35.750Z,31.50
2019-02-02T09:46:39.654Z,32.38
2019-02-02T09:47:43.868Z,32.40
2019-02-02T09:48:48.005Z,31.20
2019-02-02T09:49:51.968Z,31.07
2019-02-02T09:50:56.172Z,27.35
2019-02-02T09:52:00.244Z,24.95
2019-02-02T09:53:04.209Z,25.90
2019-02-02T09:54:09.245Z,30.08
2019-02-02T09:55:14.963Z,28.00
2019-02-02T09:56:19.110Z,25.85
2019-02-02T09:57:23.245Z,27.32
2019-02-02T09:58:27.248Z,27.22
2019-02-02T10:01:32.682Z,28.38
2019-02-02T10:04:18.731Z,31.60
2019-02-02T10:05:22.715Z,31.73
2019-02-02T10:06:45.833Z,30.25
2019-02-02T10:07:50.339Z,29.15
2019-02-02T10:09:13.493Z,33.78
2019-02-02T10:10:19.434Z,40.43
2019-02-02T10:11:23.659Z,55.23
2019-02-02T10:12:27.870Z,39.45
2019-02-02T10:13:32.082Z,47.05
2019-02-02T10:14:36.199Z,82.25
2019-02-02T10:15:40.192Z,55.33
2019-02-02T10:16:44.409Z,71.60
2019-02-02T10:17:49.786Z,46.83
2019-02-02T10:18:54.208Z,39.33
2019-02-02T10:19:58.087Z,33.25
2019-02-02T10:21:04.224Z,39.70
2019-02-02T10:22:08.168Z,39.08
2019-02-02T10:23:12.451Z,40.60
2019-02-02T10:24:16.596Z,29.35
2019-02-02T10:25:22.650Z,34.30
2019-02-02T10:26:26.880Z,32.95
2019-02-02T10:27:30.697Z,32.73
2019-02-02T10:28:34.906Z,34.50
2019-02-02T10:29:38.727Z,34.50
2019-02-02T10:30:44.147Z,34.73
2019-02-02T10:31:48.055Z,33.53
2019-02-02T10:32:52.268Z,31.15
2019-02-02T10:33:56.325Z,32.45
2019-02-02T10:35:00.217Z,33.90
2019-02-02T10:36:04.282Z,32.90
2019-02-02T10:37:08.272Z,32.58
2019-02-02T10:38:12.238Z,31.95
2019-02-02T10:39:16.457Z,33.15
2019-02-02T10:40:20.668Z,33.00
2019-02-02T10:41:24.563Z,31.62
2019-02-02T10:42:28.481Z,30.72
2019-02-02T10:43:32.374Z,28.95
2019-02-02T10:44:36.271Z,31.50
2019-02-02T10:45:40.483Z,32.67
2019-02-02T10:46:44.686Z,34.00
2019-02-02T10:47:48.907Z,34.38
2019-02-02T10:48:53.149Z,33.15
2019-02-02T10:49:57.010Z,32.42
2019-02-02T10:51:00.976Z,31.35
2019-02-02T10:52:05.046Z,33.60
2019-02-02T10:53:09.030Z,32.67
2019-02-02T10:54:13.180Z,34.90
2019-02-02T10:55:17.395Z,34.53
2019-02-02T10:56:21.596Z,32.53
2019-02-02T10:57:25.724Z,31.42
2019-02-02T10:58:29.710Z,33.38
2019-02-02T10:59:33.528Z,32.85
2019-02-02T11:00:39.481Z,32.85
2019-02-02T11:01:50.853Z,30.97
2019-02-02T11:02:49.564Z,31.70
2019-02-02T11:03:53.714Z,34.48
2019-02-02T11:04:57.930Z,34.27
2019-02-02T11:06:02.003Z,34.63
2019-02-02T11:07:05.982Z,34.88
2019-02-02T11:08:09.951Z,32.55
2019-02-02T11:09:14.245Z,33.78
2019-02-02T11:10:20.908Z,33.63
2019-02-02T11:11:25.053Z,32.73
2019-02-02T11:12:29.255Z,33.55
2019-02-02T11:13:33.414Z,33.58
2019-02-02T11:14:37.237Z,33.98
2019-02-02T11:15:41.565Z,34.83
2019-02-02T11:16:45.715Z,33.70
2019-02-02T11:17:49.923Z,33.10
2019-02-02T11:18:54.242Z,31.20
2019-02-02T11:19:58.414Z,31.05
2019-02-02T11:21:02.671Z,30.72
2019-02-02T11:22:06.886Z,31.70
2019-02-02T11:23:11.364Z,30.17
2019-02-02T11:24:15.547Z,32.45
2019-02-02T11:25:19.917Z,27.95
2019-02-02T11:26:23.858Z,29.95
2019-02-02T11:27:28.030Z,28.95
2019-02-02T11:28:32.119Z,30.52
2019-02-02T11:29:36.310Z,28.17
2019-02-02T11:30:40.491Z,31.17
2019-02-02T11:31:44.438Z,34.18
2019-02-02T11:32:48.406Z,30.68
2019-02-02T11:33:52.322Z,30.32
2019-02-02T11:34:56.145Z,30.75
2019-02-02T11:36:00.370Z,30.40
2019-02-02T11:37:04.341Z,30.62
2019-02-02T11:38:08.307Z,31.45
2019-02-02T11:39:12.309Z,34.05
2019-02-02T11:40:18.529Z,35.83
2019-02-02T11:41:22.515Z,38.20
2019-02-02T11:42:26.446Z,39.67
2019-02-02T11:43:30.682Z,39.50
2019-02-02T11:44:34.901Z,34.92
2019-02-02T11:45:39.070Z,39.03
2019-02-02T11:46:43.566Z,34.63
2019-02-02T11:47:47.788Z,33.40
2019-02-02T11:48:52.191Z,35.50
2019-02-02T11:49:56.343Z,36.77
2019-02-02T11:51:00.561Z,34.88
2019-02-02T11:52:04.536Z,35.13
2019-02-02T11:53:08.523Z,35.38
2019-02-02T11:54:12.442Z,32.85
2019-02-02T11:55:17.135Z,34.67
2019-02-02T11:56:21.356Z,31.62
2019-02-02T11:57:25.267Z,31.17
2019-02-02T11:58:29.097Z,32.20
2019-02-02T11:59:33.526Z,35.30
2019-02-02T12:00:39.944Z,33.73
2019-02-02T12:01:43.845Z,33.13
2019-02-02T12:02:49.577Z,38.23
2019-02-02T12:03:53.830Z,33.02
2019-02-02T12:04:57.996Z,32.50
2019-02-02T12:06:02.166Z,31.15
2019-02-02T12:07:06.150Z,33.02
2019-02-02T12:08:10.369Z,32.50
2019-02-02T12:09:14.683Z,29.72
2019-02-02T12:10:20.047Z,31.95
2019-02-02T12:11:23.952Z,30.70
2019-02-02T12:12:27.936Z,29.90
2019-02-02T12:13:32.322Z,29.90
2019-02-02T12:14:36.463Z,29.07
2019-02-02T12:15:40.737Z,29.75
2019-02-02T12:16:44.940Z,29.05
2019-02-02T12:17:49.441Z,30.00
2019-02-02T12:18:53.517Z,30.23
2019-02-02T12:19:57.486Z,31.62
2019-02-02T12:21:01.405Z,30.17
2019-02-02T12:22:05.916Z,30.43
2019-02-02T12:23:09.911Z,28.70
2019-02-02T12:24:16.243Z,29.23
2019-02-02T12:25:19.443Z,28.60
2019-02-02T12:26:23.585Z,28.30
2019-02-02T12:27:27.798Z,26.27
2019-02-02T12:28:31.908Z,27.48
2019-02-02T12:29:35.818Z,28.23
2019-02-02T12:30:40.040Z,29.82
2019-02-02T12:31:44.015Z,27.82
2019-02-02T12:32:47.993Z,29.00
2019-02-02T12:33:52.207Z,28.57
2019-02-02T12:34:56.180Z,28.95
2019-02-02T12:36:00.239Z,27.45
2019-02-02T12:37:04.473Z,27.87
2019-02-02T12:38:08.448Z,25.80
2019-02-02T12:39:12.534Z,27.35
2019-02-02T12:40:16.648Z,25.72
2019-02-02T12:41:20.887Z,27.90
2019-02-02T12:42:25.102Z,33.60
2019-02-02T12:43:29.168Z,31.40
2019-02-02T12:44:32.997Z,30.10
2019-02-02T12:45:45.731Z,32.67
2019-02-02T12:46:49.704Z,30.52
2019-02-02T12:47:53.675Z,34.43
2019-02-02T12:48:57.810Z,32.60
2019-02-02T12:50:01.777Z,29.18
2019-02-02T12:51:06.009Z,29.00
2019-02-02T12:52:10.238Z,26.68
2019-02-02T12:53:14.461Z,29.35
2019-02-02T12:54:18.693Z,27.93
2019-02-02T12:55:25.834Z,29.65
2019-02-02T12:56:28.580Z,26.68
2019-02-02T12:57:32.725Z,27.40
2019-02-02T12:58:36.695Z,28.87
2019-02-02T12:59:40.911Z,29.82
2019-02-02T13:00:45.758Z,30.15
2019-02-02T13:01:49.898Z,31.37
2019-02-02T13:02:54.034Z,29.45
2019-02-02T13:04:01.818Z,27.80
2019-02-02T13:05:04.107Z,27.37
2019-02-02T13:06:08.525Z,26.85
2019-02-02T13:07:12.662Z,28.07
2019-02-02T13:08:16.493Z,27.37
2019-02-02T13:09:20.714Z,27.90
2019-02-02T13:10:26.272Z,26.17
2019-02-02T13:11:30.489Z,27.00
2019-02-02T13:12:34.385Z,28.47
2019-02-02T13:13:38.292Z,27.02
2019-02-02T13:14:42.262Z,24.23
2019-02-02T13:15:46.208Z,26.70
2019-02-02T13:16:50.333Z,25.65
2019-02-02T13:17:54.224Z,22.82
2019-02-02T13:18:58.365Z,24.90
2019-02-02T13:20:02.583Z,25.97
2019-02-02T13:21:06.584Z,26.48
2019-02-02T13:22:10.899Z,26.12
2019-02-02T13:23:15.386Z,23.18
2019-02-02T13:24:19.370Z,23.40
2019-02-02T13:25:23.782Z,23.22
2019-02-02T13:26:27.929Z,23.15
2019-02-02T13:27:31.833Z,23.42
2019-02-02T13:28:35.752Z,22.70
2019-02-02T13:29:39.977Z,23.52
2019-02-02T13:30:43.882Z,20.97
2019-02-02T13:31:48.046Z,22.85
2019-02-02T13:32:52.273Z,21.87
2019-02-02T13:33:56.675Z,21.35
2019-02-02T13:35:00.555Z,20.97
2019-02-02T13:36:04.533Z,21.90
2019-02-02T13:37:08.763Z,21.12
2019-02-02T13:38:12.758Z,20.12
2019-02-02T13:39:16.743Z,20.05
2019-02-02T13:40:21.533Z,18.87
2019-02-02T13:41:25.750Z,19.20
2019-02-02T13:42:30.033Z,20.55
2019-02-02T13:43:34.109Z,20.88
2019-02-02T13:44:38.257Z,20.05
2019-02-02T13:45:42.158Z,21.27
2019-02-02T13:46:45.982Z,20.80
2019-02-02T13:47:50.131Z,19.30
2019-02-02T13:48:54.356Z,19.75
2019-02-02T13:49:58.311Z,19.98
2019-02-02T13:51:02.475Z,20.08
2019-02-02T13:52:06.743Z,19.85
2019-02-02T13:53:11.157Z,19.92
2019-02-02T13:54:15.226Z,20.32
2019-02-02T13:55:19.446Z,19.23
2019-02-02T13:56:23.607Z,20.08
2019-02-02T13:57:27.432Z,20.27
2019-02-02T13:58:31.594Z,19.00